sensor_id;sensor_type;location;lat;lon;timestamp;P1;durP1;ratioP1;P2;durP2;ratioP2
34767;SDS011;21755;43.608;1.236;2023-02-04T00:01:43;20.02;;;7.35;;
34767;SDS011;21755;43.608;1.236;2023-02-04T00:04:11;21.88;;;8.50;;
34767;SDS011;21755;43.608;1.236;2023-02-04T00:06:37;19.48;;;7.95;;
34767;SDS011;21755;43.608;1.236;2023-02-04T00:09:03;21.10;;;7.65;;
34767;SDS011;21755;43.608;1.236;2023-02-04T00:11:29;25.38;;;8.13;;
34767;SDS011;21755;43.608;1.236;2023-02-04T00:13:55;21.27;;;7.28;;
34767;SDS011;21755;43.608;1.236;2023-02-04T00:16:21;19.33;;;7.70;;
34767;SDS011;21755;43.608;1.236;2023-02-04T00:18:47;19.70;;;7.65;;
34767;SDS011;21755;43.608;1.236;2023-02-04T00:21:13;20.92;;;6.93;;
34767;SDS011;21755;43.608;1.236;2023-02-04T00:23:38;20.60;;;7.80;;
34767;SDS011;21755;43.608;1.236;2023-02-04T00:26:05;23.52;;;8.05;;
34767;SDS011;21755;43.608;1.236;2023-02-04T00:28:31;20.60;;;8.23;;
34767;SDS011;21755;43.608;1.236;2023-02-04T00:30:57;16.35;;;7.93;;
34767;SDS011;21755;43.608;1.236;2023-02-04T00:33:22;17.88;;;8.20;;
34767;SDS011;21755;43.608;1.236;2023-02-04T00:35:48;21.85;;;7.70;;
34767;SDS011;21755;43.608;1.236;2023-02-04T00:38:14;24.48;;;8.25;;
34767;SDS011;21755;43.608;1.236;2023-02-04T00:40:40;18.05;;;7.47;;
34767;SDS011;21755;43.608;1.236;2023-02-04T00:43:06;28.17;;;11.60;;
34767;SDS011;21755;43.608;1.236;2023-02-04T00:45:32;33.03;;;12.32;;
34767;SDS011;21755;43.608;1.236;2023-02-04T00:47:58;34.88;;;13.30;;
34767;SDS011;21755;43.608;1.236;2023-02-04T00:50:23;38.20;;;12.65;;
34767;SDS011;21755;43.608;1.236;2023-02-04T00:52:49;42.17;;;15.63;;
34767;SDS011;21755;43.608;1.236;2023-02-04T00:55:16;54.97;;;18.27;;
34767;SDS011;21755;43.608;1.236;2023-02-04T00:57:43;27.83;;;10.27;;
34767;SDS011;21755;43.608;1.236;2023-02-04T01:00:13;32.10;;;11.98;;
34767;SDS011;21755;43.608;1.236;2023-02-04T01:02:40;26.75;;;8.45;;
34767;SDS011;21755;43.608;1.236;2023-02-04T01:05:06;20.55;;;8.07;;
34767;SDS011;21755;43.608;1.236;2023-02-04T01:07:33;23.38;;;8.40;;
34767;SDS011;21755;43.608;1.236;2023-02-04T01:09:59;18.38;;;8.68;;
34767;SDS011;21755;43.608;1.236;2023-02-04T01:12:25;19.67;;;8.75;;
34767;SDS011;21755;43.608;1.236;2023-02-04T01:14:52;27.45;;;9.25;;
34767;SDS011;21755;43.608;1.236;2023-02-04T01:17:18;21.25;;;8.73;;
34767;SDS011;21755;43.608;1.236;2023-02-04T01:19:45;25.48;;;8.50;;
34767;SDS011;21755;43.608;1.236;2023-02-04T01:22:12;21.65;;;8.57;;
34767;SDS011;21755;43.608;1.236;2023-02-04T01:24:38;23.75;;;9.48;;
34767;SDS011;21755;43.608;1.236;2023-02-04T01:27:04;21.30;;;9.40;;
34767;SDS011;21755;43.608;1.236;2023-02-04T01:29:29;25.48;;;9.60;;
34767;SDS011;21755;43.608;1.236;2023-02-04T01:31:55;21.08;;;8.70;;
34767;SDS011;21755;43.608;1.236;2023-02-04T01:34:21;28.17;;;9.55;;
34767;SDS011;21755;43.608;1.236;2023-02-04T01:36:47;27.40;;;9.80;;
34767;SDS011;21755;43.608;1.236;2023-02-04T01:39:13;24.65;;;10.35;;
34767;SDS011;21755;43.608;1.236;2023-02-04T01:41:39;29.27;;;11.70;;
34767;SDS011;21755;43.608;1.236;2023-02-04T01:44:05;37.38;;;14.23;;
34767;SDS011;21755;43.608;1.236;2023-02-04T01:46:31;36.10;;;14.23;;
34767;SDS011;21755;43.608;1.236;2023-02-04T01:48:59;31.77;;;13.55;;
34767;SDS011;21755;43.608;1.236;2023-02-04T01:51:26;36.70;;;14.55;;
34767;SDS011;21755;43.608;1.236;2023-02-04T01:53:54;35.53;;;15.43;;
34767;SDS011;21755;43.608;1.236;2023-02-04T01:56:24;39.45;;;15.73;;
34767;SDS011;21755;43.608;1.236;2023-02-04T01:58:50;51.45;;;18.20;;
34767;SDS011;21755;43.608;1.236;2023-02-04T02:04:02;55.80;;;18.50;;
34767;SDS011;21755;43.608;1.236;2023-02-04T02:06:29;52.53;;;18.08;;
34767;SDS011;21755;43.608;1.236;2023-02-04T02:08:55;50.10;;;17.67;;
34767;SDS011;21755;43.608;1.236;2023-02-04T02:11:22;51.83;;;18.08;;
34767;SDS011;21755;43.608;1.236;2023-02-04T02:13:49;51.50;;;18.52;;
34767;SDS011;21755;43.608;1.236;2023-02-04T02:16:15;43.88;;;17.25;;
34767;SDS011;21755;43.608;1.236;2023-02-04T02:18:41;40.60;;;14.93;;
34767;SDS011;21755;43.608;1.236;2023-02-04T02:21:08;36.80;;;15.63;;
34767;SDS011;21755;43.608;1.236;2023-02-04T02:26:16;25.63;;;10.55;;
34767;SDS011;21755;43.608;1.236;2023-02-04T02:28:43;30.15;;;9.70;;
34767;SDS011;21755;43.608;1.236;2023-02-04T02:31:09;19.77;;;9.40;;
34767;SDS011;21755;43.608;1.236;2023-02-04T02:33:35;22.80;;;9.63;;
34767;SDS011;21755;43.608;1.236;2023-02-04T02:36:01;18.05;;;8.50;;
34767;SDS011;21755;43.608;1.236;2023-02-04T02:38:28;22.27;;;9.18;;
34767;SDS011;21755;43.608;1.236;2023-02-04T02:40:53;22.98;;;8.63;;
34767;SDS011;21755;43.608;1.236;2023-02-04T02:43:21;16.85;;;8.55;;
34767;SDS011;21755;43.608;1.236;2023-02-04T02:45:49;30.30;;;11.82;;
34767;SDS011;21755;43.608;1.236;2023-02-04T02:48:15;29.77;;;11.23;;
34767;SDS011;21755;43.608;1.236;2023-02-04T02:50:42;37.50;;;13.10;;
34767;SDS011;21755;43.608;1.236;2023-02-04T02:53:09;32.72;;;13.90;;
34767;SDS011;21755;43.608;1.236;2023-02-04T02:55:40;35.42;;;14.82;;
34767;SDS011;21755;43.608;1.236;2023-02-04T02:58:40;41.03;;;16.00;;
34767;SDS011;21755;43.608;1.236;2023-02-04T03:01:04;37.63;;;15.40;;
34767;SDS011;21755;43.608;1.236;2023-02-04T03:03:33;34.33;;;13.82;;
34767;SDS011;21755;43.608;1.236;2023-02-04T03:06:06;35.80;;;13.10;;
34767;SDS011;21755;43.608;1.236;2023-02-04T03:08:39;54.72;;;20.67;;
34767;SDS011;21755;43.608;1.236;2023-02-04T03:11:05;19.67;;;8.98;;
34767;SDS011;21755;43.608;1.236;2023-02-04T03:13:31;26.17;;;9.18;;
34767;SDS011;21755;43.608;1.236;2023-02-04T03:15:58;33.17;;;11.25;;
34767;SDS011;21755;43.608;1.236;2023-02-04T03:18:25;27.25;;;11.02;;
34767;SDS011;21755;43.608;1.236;2023-02-04T03:20:51;15.00;;;8.75;;
34767;SDS011;21755;43.608;1.236;2023-02-04T03:23:18;20.35;;;8.32;;
34767;SDS011;21755;43.608;1.236;2023-02-04T03:25:44;21.65;;;7.85;;
34767;SDS011;21755;43.608;1.236;2023-02-04T03:28:10;19.33;;;8.05;;
34767;SDS011;21755;43.608;1.236;2023-02-04T03:30:36;25.17;;;6.65;;
34767;SDS011;21755;43.608;1.236;2023-02-04T03:33:02;11.02;;;5.88;;
34767;SDS011;21755;43.608;1.236;2023-02-04T03:35:29;17.80;;;7.22;;
34767;SDS011;21755;43.608;1.236;2023-02-04T03:37:54;23.35;;;8.38;;
34767;SDS011;21755;43.608;1.236;2023-02-04T03:40:20;19.08;;;6.53;;
34767;SDS011;21755;43.608;1.236;2023-02-04T03:42:46;20.70;;;7.53;;
34767;SDS011;21755;43.608;1.236;2023-02-04T03:45:12;17.77;;;7.78;;
34767;SDS011;21755;43.608;1.236;2023-02-04T03:47:38;18.05;;;7.45;;
34767;SDS011;21755;43.608;1.236;2023-02-04T03:50:04;18.60;;;7.32;;
34767;SDS011;21755;43.608;1.236;2023-02-04T03:52:30;19.77;;;7.57;;
34767;SDS011;21755;43.608;1.236;2023-02-04T03:54:56;21.15;;;8.00;;
34767;SDS011;21755;43.608;1.236;2023-02-04T03:57:22;22.02;;;7.82;;
34767;SDS011;21755;43.608;1.236;2023-02-04T03:59:48;16.52;;;8.32;;
34767;SDS011;21755;43.608;1.236;2023-02-04T04:02:14;21.95;;;7.57;;
34767;SDS011;21755;43.608;1.236;2023-02-04T04:04:39;18.30;;;7.15;;
34767;SDS011;21755;43.608;1.236;2023-02-04T04:07:05;22.00;;;8.10;;
34767;SDS011;21755;43.608;1.236;2023-02-04T04:09:31;25.58;;;8.93;;
34767;SDS011;21755;43.608;1.236;2023-02-04T04:11:57;19.65;;;8.13;;
34767;SDS011;21755;43.608;1.236;2023-02-04T04:14:23;20.05;;;7.65;;
34767;SDS011;21755;43.608;1.236;2023-02-04T04:16:49;23.17;;;8.57;;
34767;SDS011;21755;43.608;1.236;2023-02-04T04:19:15;20.55;;;7.85;;
34767;SDS011;21755;43.608;1.236;2023-02-04T04:21:40;21.00;;;8.15;;
34767;SDS011;21755;43.608;1.236;2023-02-04T04:24:06;27.50;;;8.80;;
34767;SDS011;21755;43.608;1.236;2023-02-04T04:26:32;15.95;;;8.32;;
34767;SDS011;21755;43.608;1.236;2023-02-04T04:28:58;20.73;;;8.18;;
34767;SDS011;21755;43.608;1.236;2023-02-04T04:31:24;18.27;;;8.02;;
34767;SDS011;21755;43.608;1.236;2023-02-04T04:33:50;19.80;;;8.05;;
34767;SDS011;21755;43.608;1.236;2023-02-04T04:36:15;21.45;;;8.65;;
34767;SDS011;21755;43.608;1.236;2023-02-04T04:38:41;16.80;;;7.20;;
34767;SDS011;21755;43.608;1.236;2023-02-04T04:41:07;17.27;;;6.82;;
34767;SDS011;21755;43.608;1.236;2023-02-04T04:43:33;21.50;;;8.65;;
34767;SDS011;21755;43.608;1.236;2023-02-04T04:45:59;12.98;;;6.78;;
34767;SDS011;21755;43.608;1.236;2023-02-04T04:48:25;14.02;;;6.78;;
34767;SDS011;21755;43.608;1.236;2023-02-04T04:50:51;22.55;;;6.90;;
34767;SDS011;21755;43.608;1.236;2023-02-04T04:53:16;16.40;;;6.88;;
34767;SDS011;21755;43.608;1.236;2023-02-04T04:55:42;22.60;;;9.40;;
34767;SDS011;21755;43.608;1.236;2023-02-04T04:58:08;23.20;;;8.80;;
34767;SDS011;21755;43.608;1.236;2023-02-04T05:00:35;28.95;;;9.52;;
34767;SDS011;21755;43.608;1.236;2023-02-04T05:03:01;22.85;;;8.13;;
34767;SDS011;21755;43.608;1.236;2023-02-04T05:05:27;24.50;;;8.23;;
34767;SDS011;21755;43.608;1.236;2023-02-04T05:07:53;24.48;;;8.68;;
34767;SDS011;21755;43.608;1.236;2023-02-04T05:10:19;21.40;;;8.45;;
34767;SDS011;21755;43.608;1.236;2023-02-04T05:12:45;13.85;;;7.28;;
34767;SDS011;21755;43.608;1.236;2023-02-04T05:15:11;21.90;;;8.23;;
34767;SDS011;21755;43.608;1.236;2023-02-04T05:17:37;22.42;;;8.10;;
34767;SDS011;21755;43.608;1.236;2023-02-04T05:20:03;22.27;;;9.25;;
34767;SDS011;21755;43.608;1.236;2023-02-04T05:22:29;18.85;;;7.75;;
34767;SDS011;21755;43.608;1.236;2023-02-04T05:24:55;19.77;;;7.32;;
34767;SDS011;21755;43.608;1.236;2023-02-04T05:27:24;16.75;;;7.25;;
34767;SDS011;21755;43.608;1.236;2023-02-04T05:29:50;32.38;;;8.70;;
34767;SDS011;21755;43.608;1.236;2023-02-04T05:32:16;22.80;;;8.23;;
34767;SDS011;21755;43.608;1.236;2023-02-04T05:34:41;18.10;;;7.95;;
34767;SDS011;21755;43.608;1.236;2023-02-04T05:37:07;19.33;;;8.38;;
34767;SDS011;21755;43.608;1.236;2023-02-04T05:39:33;19.13;;;8.00;;
34767;SDS011;21755;43.608;1.236;2023-02-04T05:41:59;19.83;;;8.05;;
34767;SDS011;21755;43.608;1.236;2023-02-04T05:44:25;18.23;;;8.13;;
34767;SDS011;21755;43.608;1.236;2023-02-04T05:46:51;21.52;;;8.00;;
34767;SDS011;21755;43.608;1.236;2023-02-04T05:49:16;21.00;;;7.60;;
34767;SDS011;21755;43.608;1.236;2023-02-04T05:51:42;22.45;;;8.40;;
34767;SDS011;21755;43.608;1.236;2023-02-04T05:54:08;24.35;;;7.68;;
34767;SDS011;21755;43.608;1.236;2023-02-04T05:56:34;23.75;;;8.18;;
34767;SDS011;21755;43.608;1.236;2023-02-04T05:59:00;25.05;;;8.38;;
34767;SDS011;21755;43.608;1.236;2023-02-04T06:01:26;17.30;;;9.32;;
34767;SDS011;21755;43.608;1.236;2023-02-04T06:03:51;23.30;;;10.27;;
34767;SDS011;21755;43.608;1.236;2023-02-04T06:06:17;28.63;;;9.77;;
34767;SDS011;21755;43.608;1.236;2023-02-04T06:08:43;22.17;;;10.95;;
34767;SDS011;21755;43.608;1.236;2023-02-04T06:11:09;25.23;;;11.18;;
34767;SDS011;21755;43.608;1.236;2023-02-04T06:13:35;29.38;;;13.32;;
34767;SDS011;21755;43.608;1.236;2023-02-04T06:16:01;24.05;;;11.57;;
34767;SDS011;21755;43.608;1.236;2023-02-04T06:18:26;23.85;;;9.35;;
34767;SDS011;21755;43.608;1.236;2023-02-04T06:20:52;23.08;;;9.45;;
34767;SDS011;21755;43.608;1.236;2023-02-04T06:23:18;26.90;;;9.68;;
34767;SDS011;21755;43.608;1.236;2023-02-04T06:25:44;25.52;;;11.02;;
34767;SDS011;21755;43.608;1.236;2023-02-04T06:28:12;31.10;;;11.48;;
34767;SDS011;21755;43.608;1.236;2023-02-04T06:30:38;29.52;;;12.90;;
34767;SDS011;21755;43.608;1.236;2023-02-04T06:33:04;18.05;;;9.25;;
34767;SDS011;21755;43.608;1.236;2023-02-04T06:35:30;17.95;;;8.52;;
34767;SDS011;21755;43.608;1.236;2023-02-04T06:37:56;61.83;;;20.95;;
34767;SDS011;21755;43.608;1.236;2023-02-04T06:40:22;60.20;;;19.70;;
34767;SDS011;21755;43.608;1.236;2023-02-04T06:42:48;39.25;;;13.35;;
34767;SDS011;21755;43.608;1.236;2023-02-04T06:45:14;31.15;;;11.38;;
34767;SDS011;21755;43.608;1.236;2023-02-04T06:47:40;21.10;;;8.95;;
34767;SDS011;21755;43.608;1.236;2023-02-04T06:50:06;46.53;;;17.17;;
34767;SDS011;21755;43.608;1.236;2023-02-04T06:52:32;42.83;;;17.17;;
34767;SDS011;21755;43.608;1.236;2023-02-04T06:54:58;54.35;;;19.05;;
34767;SDS011;21755;43.608;1.236;2023-02-04T06:57:27;54.53;;;20.20;;
34767;SDS011;21755;43.608;1.236;2023-02-04T06:59:53;46.53;;;15.80;;
34767;SDS011;21755;43.608;1.236;2023-02-04T07:02:19;30.90;;;14.20;;
34767;SDS011;21755;43.608;1.236;2023-02-04T07:04:45;34.15;;;13.82;;
34767;SDS011;21755;43.608;1.236;2023-02-04T07:07:10;26.55;;;11.93;;
34767;SDS011;21755;43.608;1.236;2023-02-04T07:09:36;35.92;;;12.68;;
34767;SDS011;21755;43.608;1.236;2023-02-04T07:12:04;34.65;;;13.88;;
34767;SDS011;21755;43.608;1.236;2023-02-04T07:14:30;25.55;;;11.88;;
34767;SDS011;21755;43.608;1.236;2023-02-04T07:16:56;22.23;;;11.20;;
34767;SDS011;21755;43.608;1.236;2023-02-04T07:19:22;30.42;;;10.82;;
34767;SDS011;21755;43.608;1.236;2023-02-04T07:21:49;22.08;;;9.68;;
34767;SDS011;21755;43.608;1.236;2023-02-04T07:24:18;28.27;;;10.13;;
34767;SDS011;21755;43.608;1.236;2023-02-04T07:26:44;19.40;;;8.27;;
34767;SDS011;21755;43.608;1.236;2023-02-04T07:29:10;23.33;;;9.82;;
34767;SDS011;21755;43.608;1.236;2023-02-04T07:31:36;16.98;;;8.73;;
34767;SDS011;21755;43.608;1.236;2023-02-04T07:34:02;25.45;;;10.48;;
34767;SDS011;21755;43.608;1.236;2023-02-04T07:36:28;25.58;;;10.30;;
34767;SDS011;21755;43.608;1.236;2023-02-04T07:38:54;22.75;;;10.65;;
34767;SDS011;21755;43.608;1.236;2023-02-04T07:41:19;28.65;;;11.73;;
34767;SDS011;21755;43.608;1.236;2023-02-04T07:43:46;27.13;;;12.20;;
34767;SDS011;21755;43.608;1.236;2023-02-04T07:46:11;33.17;;;14.48;;
34767;SDS011;21755;43.608;1.236;2023-02-04T07:48:37;29.85;;;13.02;;
34767;SDS011;21755;43.608;1.236;2023-02-04T07:51:03;30.25;;;13.85;;
34767;SDS011;21755;43.608;1.236;2023-02-04T07:53:29;41.67;;;16.02;;
34767;SDS011;21755;43.608;1.236;2023-02-04T07:55:55;29.13;;;13.18;;
34767;SDS011;21755;43.608;1.236;2023-02-04T07:58:21;43.65;;;18.88;;
34767;SDS011;21755;43.608;1.236;2023-02-04T08:00:47;35.65;;;14.35;;
34767;SDS011;21755;43.608;1.236;2023-02-04T08:03:13;30.40;;;15.48;;
34767;SDS011;21755;43.608;1.236;2023-02-04T08:05:39;35.58;;;15.75;;
34767;SDS011;21755;43.608;1.236;2023-02-04T08:08:05;39.33;;;16.17;;
34767;SDS011;21755;43.608;1.236;2023-02-04T08:10:31;36.40;;;16.63;;
34767;SDS011;21755;43.608;1.236;2023-02-04T08:12:56;42.00;;;17.42;;
34767;SDS011;21755;43.608;1.236;2023-02-04T08:15:22;32.42;;;14.98;;
34767;SDS011;21755;43.608;1.236;2023-02-04T08:17:48;32.80;;;14.13;;
34767;SDS011;21755;43.608;1.236;2023-02-04T08:20:14;26.25;;;13.07;;
34767;SDS011;21755;43.608;1.236;2023-02-04T08:22:42;27.63;;;12.48;;
34767;SDS011;21755;43.608;1.236;2023-02-04T08:25:08;34.53;;;14.60;;
34767;SDS011;21755;43.608;1.236;2023-02-04T08:27:35;34.67;;;15.07;;
34767;SDS011;21755;43.608;1.236;2023-02-04T08:30:02;31.80;;;13.40;;
34767;SDS011;21755;43.608;1.236;2023-02-04T08:32:29;28.73;;;12.52;;
34767;SDS011;21755;43.608;1.236;2023-02-04T08:34:56;31.77;;;13.23;;
34767;SDS011;21755;43.608;1.236;2023-02-04T08:37:22;25.48;;;12.20;;
34767;SDS011;21755;43.608;1.236;2023-02-04T08:39:48;34.17;;;11.20;;
34767;SDS011;21755;43.608;1.236;2023-02-04T08:42:14;27.35;;;12.40;;
34767;SDS011;21755;43.608;1.236;2023-02-04T08:44:41;30.00;;;12.40;;
34767;SDS011;21755;43.608;1.236;2023-02-04T08:47:07;24.20;;;11.15;;
34767;SDS011;21755;43.608;1.236;2023-02-04T08:49:34;30.80;;;13.52;;
34767;SDS011;21755;43.608;1.236;2023-02-04T08:52:03;30.17;;;13.32;;
34767;SDS011;21755;43.608;1.236;2023-02-04T08:54:31;23.52;;;11.65;;
34767;SDS011;21755;43.608;1.236;2023-02-04T08:56:58;26.80;;;11.50;;
34767;SDS011;21755;43.608;1.236;2023-02-04T08:59:25;25.65;;;11.43;;
34767;SDS011;21755;43.608;1.236;2023-02-04T09:01:51;21.48;;;10.85;;
34767;SDS011;21755;43.608;1.236;2023-02-04T09:04:17;22.13;;;11.00;;
34767;SDS011;21755;43.608;1.236;2023-02-04T09:06:44;22.88;;;10.60;;
34767;SDS011;21755;43.608;1.236;2023-02-04T09:09:10;22.17;;;10.05;;
34767;SDS011;21755;43.608;1.236;2023-02-04T09:11:36;23.98;;;10.77;;
34767;SDS011;21755;43.608;1.236;2023-02-04T09:14:02;21.75;;;10.40;;
34767;SDS011;21755;43.608;1.236;2023-02-04T09:16:28;23.27;;;9.80;;
34767;SDS011;21755;43.608;1.236;2023-02-04T09:18:54;22.13;;;9.18;;
34767;SDS011;21755;43.608;1.236;2023-02-04T09:21:22;28.23;;;10.05;;
34767;SDS011;21755;43.608;1.236;2023-02-04T09:23:48;25.25;;;9.93;;
34767;SDS011;21755;43.608;1.236;2023-02-04T09:26:14;20.58;;;10.48;;
34767;SDS011;21755;43.608;1.236;2023-02-04T09:28:40;29.05;;;9.68;;
34767;SDS011;21755;43.608;1.236;2023-02-04T09:31:06;21.45;;;10.45;;
34767;SDS011;21755;43.608;1.236;2023-02-04T09:33:33;17.08;;;8.65;;
34767;SDS011;21755;43.608;1.236;2023-02-04T09:36:00;20.35;;;9.68;;
34767;SDS011;21755;43.608;1.236;2023-02-04T09:38:26;22.63;;;9.05;;
34767;SDS011;21755;43.608;1.236;2023-02-04T09:40:56;18.23;;;8.45;;
34767;SDS011;21755;43.608;1.236;2023-02-04T09:43:26;23.08;;;8.77;;
34767;SDS011;21755;43.608;1.236;2023-02-04T09:45:54;18.45;;;8.63;;
34767;SDS011;21755;43.608;1.236;2023-02-04T09:48:21;16.00;;;9.15;;
34767;SDS011;21755;43.608;1.236;2023-02-04T09:51:01;20.77;;;8.85;;
34767;SDS011;21755;43.608;1.236;2023-02-04T09:53:32;18.45;;;8.13;;
34767;SDS011;21755;43.608;1.236;2023-02-04T09:56:00;15.70;;;6.90;;
34767;SDS011;21755;43.608;1.236;2023-02-04T09:58:28;17.55;;;7.20;;
34767;SDS011;21755;43.608;1.236;2023-02-04T10:00:58;24.45;;;7.53;;
34767;SDS011;21755;43.608;1.236;2023-02-04T10:03:33;19.15;;;7.57;;
34767;SDS011;21755;43.608;1.236;2023-02-04T10:05:59;14.57;;;6.70;;
34767;SDS011;21755;43.608;1.236;2023-02-04T10:08:28;20.42;;;7.10;;
34767;SDS011;21755;43.608;1.236;2023-02-04T10:10:57;12.60;;;6.43;;
34767;SDS011;21755;43.608;1.236;2023-02-04T10:13:32;14.32;;;6.95;;
34767;SDS011;21755;43.608;1.236;2023-02-04T10:16:00;14.80;;;6.60;;
34767;SDS011;21755;43.608;1.236;2023-02-04T10:18:32;15.95;;;8.88;;
34767;SDS011;21755;43.608;1.236;2023-02-04T10:21:00;17.40;;;7.85;;
34767;SDS011;21755;43.608;1.236;2023-02-04T10:23:40;14.77;;;7.13;;
34767;SDS011;21755;43.608;1.236;2023-02-04T10:26:11;17.25;;;7.72;;
34767;SDS011;21755;43.608;1.236;2023-02-04T10:28:37;16.38;;;7.70;;
34767;SDS011;21755;43.608;1.236;2023-02-04T10:31:04;17.52;;;8.43;;
34767;SDS011;21755;43.608;1.236;2023-02-04T10:33:33;19.67;;;7.80;;
34767;SDS011;21755;43.608;1.236;2023-02-04T10:36:02;13.93;;;7.25;;
34767;SDS011;21755;43.608;1.236;2023-02-04T10:38:30;15.45;;;8.43;;
34767;SDS011;21755;43.608;1.236;2023-02-04T10:41:00;15.23;;;7.20;;
34767;SDS011;21755;43.608;1.236;2023-02-04T10:43:29;20.88;;;8.07;;
34767;SDS011;21755;43.608;1.236;2023-02-04T10:46:05;17.52;;;8.55;;
34767;SDS011;21755;43.608;1.236;2023-02-04T10:48:38;19.05;;;9.45;;
34767;SDS011;21755;43.608;1.236;2023-02-04T10:51:08;20.55;;;8.57;;
34767;SDS011;21755;43.608;1.236;2023-02-04T10:53:36;19.00;;;7.72;;
34767;SDS011;21755;43.608;1.236;2023-02-04T10:56:21;22.33;;;8.18;;
34767;SDS011;21755;43.608;1.236;2023-02-04T10:58:47;17.70;;;8.38;;
34767;SDS011;21755;43.608;1.236;2023-02-04T11:01:14;24.35;;;9.80;;
34767;SDS011;21755;43.608;1.236;2023-02-04T11:03:41;19.52;;;8.25;;
34767;SDS011;21755;43.608;1.236;2023-02-04T11:06:11;16.48;;;7.18;;
34767;SDS011;21755;43.608;1.236;2023-02-04T11:08:41;17.08;;;6.15;;
34767;SDS011;21755;43.608;1.236;2023-02-04T11:11:10;18.13;;;7.07;;
34767;SDS011;21755;43.608;1.236;2023-02-04T11:18:46;16.92;;;6.97;;
34767;SDS011;21755;43.608;1.236;2023-02-04T11:21:14;13.38;;;6.95;;
34767;SDS011;21755;43.608;1.236;2023-02-04T11:23:46;14.70;;;6.20;;
34767;SDS011;21755;43.608;1.236;2023-02-04T11:26:13;15.90;;;5.95;;
34767;SDS011;21755;43.608;1.236;2023-02-04T11:29:06;14.05;;;6.30;;
34767;SDS011;21755;43.608;1.236;2023-02-04T11:32:00;12.43;;;6.10;;
34767;SDS011;21755;43.608;1.236;2023-02-04T11:34:31;21.27;;;5.95;;
34767;SDS011;21755;43.608;1.236;2023-02-04T11:39:42;13.23;;;6.82;;
34767;SDS011;21755;43.608;1.236;2023-02-04T11:42:54;14.65;;;5.80;;
34767;SDS011;21755;43.608;1.236;2023-02-04T11:45:28;13.32;;;6.00;;
34767;SDS011;21755;43.608;1.236;2023-02-04T11:48:01;11.65;;;6.07;;
34767;SDS011;21755;43.608;1.236;2023-02-04T11:50:30;16.63;;;6.40;;
34767;SDS011;21755;43.608;1.236;2023-02-04T11:52:58;16.48;;;6.45;;
34767;SDS011;21755;43.608;1.236;2023-02-04T11:55:26;16.95;;;7.70;;
34767;SDS011;21755;43.608;1.236;2023-02-04T11:57:54;14.60;;;5.38;;
34767;SDS011;21755;43.608;1.236;2023-02-04T12:00:24;16.42;;;6.20;;
34767;SDS011;21755;43.608;1.236;2023-02-04T12:02:57;11.30;;;5.88;;
34767;SDS011;21755;43.608;1.236;2023-02-04T12:05:37;13.85;;;6.25;;
34767;SDS011;21755;43.608;1.236;2023-02-04T12:08:38;14.07;;;5.15;;
34767;SDS011;21755;43.608;1.236;2023-02-04T12:11:12;9.02;;;4.47;;
34767;SDS011;21755;43.608;1.236;2023-02-04T12:13:55;13.88;;;5.57;;
34767;SDS011;21755;43.608;1.236;2023-02-04T12:16:23;6.15;;;4.43;;
34767;SDS011;21755;43.608;1.236;2023-02-04T12:18:50;11.95;;;5.38;;
34767;SDS011;21755;43.608;1.236;2023-02-04T12:21:16;14.77;;;5.47;;
34767;SDS011;21755;43.608;1.236;2023-02-04T12:23:45;7.95;;;4.38;;
34767;SDS011;21755;43.608;1.236;2023-02-04T12:26:11;8.05;;;5.07;;
34767;SDS011;21755;43.608;1.236;2023-02-04T12:28:37;10.52;;;4.50;;
34767;SDS011;21755;43.608;1.236;2023-02-04T12:31:03;13.05;;;3.90;;
34767;SDS011;21755;43.608;1.236;2023-02-04T12:33:29;9.95;;;4.35;;
34767;SDS011;21755;43.608;1.236;2023-02-04T12:35:55;12.43;;;5.20;;
34767;SDS011;21755;43.608;1.236;2023-02-04T12:38:21;8.80;;;3.97;;
34767;SDS011;21755;43.608;1.236;2023-02-04T12:40:46;10.23;;;4.40;;
34767;SDS011;21755;43.608;1.236;2023-02-04T12:43:13;8.25;;;4.15;;
34767;SDS011;21755;43.608;1.236;2023-02-04T12:45:39;11.20;;;5.05;;
34767;SDS011;21755;43.608;1.236;2023-02-04T12:48:09;9.05;;;4.53;;
34767;SDS011;21755;43.608;1.236;2023-02-04T12:50:37;5.85;;;3.63;;
34767;SDS011;21755;43.608;1.236;2023-02-04T12:53:03;10.18;;;4.85;;
34767;SDS011;21755;43.608;1.236;2023-02-04T12:55:30;8.00;;;4.57;;
34767;SDS011;21755;43.608;1.236;2023-02-04T12:57:56;8.82;;;5.20;;
34767;SDS011;21755;43.608;1.236;2023-02-04T13:00:22;11.70;;;5.80;;
34767;SDS011;21755;43.608;1.236;2023-02-04T13:02:48;12.05;;;6.28;;
34767;SDS011;21755;43.608;1.236;2023-02-04T13:05:14;12.68;;;5.30;;
34767;SDS011;21755;43.608;1.236;2023-02-04T13:07:41;8.75;;;4.63;;
34767;SDS011;21755;43.608;1.236;2023-02-04T13:10:08;8.52;;;4.68;;
34767;SDS011;21755;43.608;1.236;2023-02-04T13:12:34;9.60;;;4.07;;
34767;SDS011;21755;43.608;1.236;2023-02-04T13:15:00;14.52;;;4.88;;
34767;SDS011;21755;43.608;1.236;2023-02-04T13:17:26;9.98;;;5.00;;
34767;SDS011;21755;43.608;1.236;2023-02-04T13:19:52;8.65;;;4.75;;
34767;SDS011;21755;43.608;1.236;2023-02-04T13:22:18;9.38;;;4.25;;
34767;SDS011;21755;43.608;1.236;2023-02-04T13:24:44;9.90;;;4.22;;
34767;SDS011;21755;43.608;1.236;2023-02-04T13:27:10;12.30;;;4.75;;
34767;SDS011;21755;43.608;1.236;2023-02-04T13:29:36;8.00;;;4.25;;
34767;SDS011;21755;43.608;1.236;2023-02-04T13:32:02;5.95;;;3.58;;
34767;SDS011;21755;43.608;1.236;2023-02-04T13:34:28;9.52;;;4.07;;
34767;SDS011;21755;43.608;1.236;2023-02-04T13:36:54;8.88;;;4.90;;
34767;SDS011;21755;43.608;1.236;2023-02-04T13:39:19;9.93;;;4.43;;
34767;SDS011;21755;43.608;1.236;2023-02-04T13:41:45;8.50;;;3.83;;
34767;SDS011;21755;43.608;1.236;2023-02-04T13:44:11;10.02;;;3.42;;
34767;SDS011;21755;43.608;1.236;2023-02-04T13:46:37;7.30;;;4.07;;
34767;SDS011;21755;43.608;1.236;2023-02-04T13:49:03;8.20;;;4.25;;
34767;SDS011;21755;43.608;1.236;2023-02-04T13:51:29;6.45;;;3.40;;
34767;SDS011;21755;43.608;1.236;2023-02-04T13:53:55;10.20;;;3.83;;
34767;SDS011;21755;43.608;1.236;2023-02-04T13:56:22;13.02;;;4.45;;
34767;SDS011;21755;43.608;1.236;2023-02-04T13:58:48;6.28;;;3.50;;
34767;SDS011;21755;43.608;1.236;2023-02-04T14:01:14;10.20;;;4.22;;
34767;SDS011;21755;43.608;1.236;2023-02-04T14:03:40;6.93;;;3.28;;
34767;SDS011;21755;43.608;1.236;2023-02-04T14:06:06;7.35;;;3.25;;
34767;SDS011;21755;43.608;1.236;2023-02-04T14:08:32;6.45;;;3.25;;
34767;SDS011;21755;43.608;1.236;2023-02-04T14:10:58;6.68;;;3.63;;
34767;SDS011;21755;43.608;1.236;2023-02-04T14:13:24;9.15;;;3.67;;
34767;SDS011;21755;43.608;1.236;2023-02-04T14:15:50;8.57;;;4.25;;
34767;SDS011;21755;43.608;1.236;2023-02-04T14:18:16;6.53;;;3.38;;
34767;SDS011;21755;43.608;1.236;2023-02-04T14:20:42;4.35;;;3.00;;
34767;SDS011;21755;43.608;1.236;2023-02-04T14:23:08;7.82;;;3.42;;
34767;SDS011;21755;43.608;1.236;2023-02-04T14:25:36;6.47;;;3.08;;
34767;SDS011;21755;43.608;1.236;2023-02-04T14:28:02;8.18;;;3.17;;
34767;SDS011;21755;43.608;1.236;2023-02-04T14:30:29;7.13;;;3.60;;
34767;SDS011;21755;43.608;1.236;2023-02-04T14:32:55;7.25;;;3.33;;
34767;SDS011;21755;43.608;1.236;2023-02-04T14:35:21;6.50;;;3.70;;
34767;SDS011;21755;43.608;1.236;2023-02-04T14:37:48;8.20;;;4.22;;
34767;SDS011;21755;43.608;1.236;2023-02-04T14:40:14;11.73;;;4.40;;
34767;SDS011;21755;43.608;1.236;2023-02-04T14:42:41;5.00;;;2.88;;
34767;SDS011;21755;43.608;1.236;2023-02-04T14:45:08;8.00;;;3.08;;
34767;SDS011;21755;43.608;1.236;2023-02-04T14:47:35;8.25;;;3.40;;